Time;durP1;ratioP1;P1;durP2;ratioP2;P2;SDS_P1;SDS_P2;PMS_P1;PMS_P2;Temp;Humidity;BMP_temperature;BMP_pressure;BME280_temperature;BME280_humidity;BME280_pressure;Samples;Min_cycle;Max_cycle;Signal;HPM_P1;HPM_P2
2022/04/29 00:00:04;;;;;;;8.13;7.33;;;;;;;17.22;50.79;95153.50;5074056;28;20644;-82
2022/04/29 00:02:31;;;;;;;7.43;6.73;;;;;;;17.21;50.83;95156.28;5073567;28;20229;-79
2022/04/29 00:04:59;;;;;;;10.97;7.30;;;;;;;17.19;50.73;95159.03;5074069;28;20182;-83
2022/04/29 00:07:26;;;;;;;7.83;7.10;;;;;;;17.16;51.07;95151.59;5073729;28;20197;-84
2022/04/29 00:09:52;;;;;;;7.97;7.17;;;;;;;17.04;50.92;95129.69;5073735;28;20284;-82
2022/04/29 00:12:20;;;;;;;7.83;7.03;;;;;;;17.13;51.18;95149.34;5073782;28;20198;-82
2022/04/29 00:14:47;;;;;;;8.27;7.47;;;;;;;17.01;51.17;95130.84;5073605;28;20281;-84
2022/04/29 00:17:14;;;;;;;8.23;7.43;;;;;;;16.97;51.12;95124.38;5073915;28;20186;-82
2022/04/29 00:19:41;;;;;;;7.50;6.80;;;;;;;17.13;50.91;95145.97;5071304;28;20194;-83
2022/04/29 00:22:09;;;;;;;7.37;6.47;;;;;;;17.13;50.97;95144.19;5073137;28;20222;-80
2022/04/29 00:24:36;;;;;;;7.57;6.47;;;;;;;17.12;50.73;95145.16;5072948;28;20194;-84
2022/04/29 00:27:03;;;;;;;7.50;6.80;;;;;;;17.03;51.09;95130.66;5073174;28;20186;-80
2022/04/29 00:29:30;;;;;;;7.70;6.97;;;;;;;17.09;50.97;95140.31;5073401;28;20190;-84
2022/04/29 00:31:58;;;;;;;7.03;6.33;;;;;;;16.95;51.14;95117.75;5073759;28;20198;-82
2022/04/29 00:34:25;;;;;;;8.20;7.40;;;;;;;17.07;51.17;95141.47;5073272;28;20190;-82
2022/04/29 00:36:52;;;;;;;7.40;6.73;;;;;;;17.06;51.20;95140.66;5073440;28;20594;-84
2022/04/29 00:39:20;;;;;;;8.17;7.40;;;;;;;16.88;51.23;95114.22;5073109;28;20186;-83
2022/04/29 00:41:47;;;;;;;10.03;7.90;;;;;;;17.02;51.18;95135.03;5073700;28;20221;-81
2022/04/29 00:44:14;;;;;;;7.73;6.97;;;;;;;17.01;51.33;95135.16;5071848;28;20291;-83
2022/04/29 00:46:43;;;;;;;8.87;7.20;;;;;;;16.99;51.32;95132.75;5073451;28;20190;-83
2022/04/29 00:49:16;;;;;;;8.00;7.20;;;;;;;17.00;51.34;95134.38;5074497;28;20194;-82
2022/04/29 00:51:45;;;;;;;7.90;7.07;;;;;;;16.76;51.24;95091.34;5074807;28;20182;-83
2022/04/29 00:54:19;;;;;;;8.00;7.23;;;;;;;16.86;51.23;95105.84;5073170;28;20187;-82
2022/04/29 00:56:48;;;;;;;8.90;7.20;;;;;;;16.97;51.25;95124.38;5073476;28;20182;-81
2022/04/29 00:59:17;;;;;;;7.87;7.17;;;;;;;16.91;51.17;95108.72;5073531;28;20187;-82
2022/04/29 01:01:50;;;;;;;8.03;6.80;;;;;;;16.92;51.19;95118.09;5073068;28;20194;-83
2022/04/29 01:04:26;;;;;;;7.90;7.20;;;;;;;16.79;51.07;95090.97;5029784;28;20215;-82
2022/04/29 01:06:54;;;;;;;8.33;7.53;;;;;;;16.51;51.50;95048.44;5030279;28;20191;-82
2022/04/29 01:09:22;;;;;;;7.47;6.87;;;;;;;16.95;51.21;95112.59;5029727;28;20196;-81
2022/04/29 01:11:51;;;;;;;7.37;6.67;;;;;;;16.93;51.34;95114.56;5030984;28;20318;-81
2022/04/29 01:14:18;;;;;;;7.53;6.83;;;;;;;16.93;51.34;95117.13;5014219;28;20204;-82
2022/04/29 01:16:46;;;;;;;8.57;7.77;;;;;;;16.94;51.30;95118.72;5031003;28;20203;-81
2022/04/29 01:19:13;;;;;;;9.43;7.67;;;;;;;16.94;51.23;95116.97;5030014;28;20267;-80
2022/04/29 01:21:41;;;;;;;7.47;6.77;;;;;;;16.95;51.23;95117.75;4997166;28;20245;-81
2022/04/29 01:24:09;;;;;;;7.80;7.10;;;;;;;16.73;51.27;95081.31;5029970;28;20195;-80
2022/04/29 01:26:36;;;;;;;8.13;7.33;;;;;;;16.94;51.41;95113.56;5029950;28;20191;-80
2022/04/29 01:29:06;;;;;;;8.77;7.90;;;;;;;16.93;51.33;95117.13;5030026;28;20250;-80
2022/04/29 01:31:34;;;;;;;8.83;7.93;;;;;;;16.92;51.50;95120.66;5029707;28;20190;-78
2022/04/29 01:34:02;;;;;;;9.47;8.47;;;;;;;16.77;51.42;95090.34;5030026;28;20619;-79
2022/04/29 01:36:29;;;;;;;8.20;7.40;;;;;;;16.90;51.63;95105.34;5070066;28;20240;-79
2022/04/29 01:38:56;;;;;;;8.90;7.80;;;;;;;16.91;51.49;95106.13;5072483;28;20331;-79
2022/04/29 01:41:24;;;;;;;9.13;8.07;;;;;;;16.89;51.53;95105.50;5071655;28;20182;-80
2022/04/29 01:43:51;;;;;;;9.23;8.33;;;;;;;16.89;51.53;95111.47;5071863;28;20218;-80
2022/04/29 01:46:17;;;;;;;8.63;7.77;;;;;;;16.88;51.60;95109.03;5072085;28;20183;-80
2022/04/29 01:48:44;;;;;;;8.47;7.60;;;;;;;16.87;51.54;95110.81;5071904;28;20186;-81
2022/04/29 01:51:11;;;;;;;7.73;7.03;;;;;;;16.85;51.66;95115.38;5070928;28;20197;-79
2022/04/29 01:53:38;;;;;;;9.07;7.23;;;;;;;16.84;51.53;95113.75;5071597;28;20604;-80
2022/04/29 01:56:05;;;;;;;8.27;7.47;;;;;;;16.83;51.46;95117.28;5071515;28;20194;-79
2022/04/29 01:58:34;;;;;;;8.77;7.93;;;;;;;16.83;51.62;95116.50;5071740;28;20190;-80
2022/04/29 02:01:02;;;;;;;9.37;7.93;;;;;;;16.61;51.50;95077.44;5071752;28;20197;-79
2022/04/29 02:03:29;;;;;;;7.83;7.03;;;;;;;16.71;51.33;95096.16;5071391;28;20222;-79
2022/04/29 02:05:55;;;;;;;8.17;7.27;;;;;;;16.80;51.50;95113.28;5070746;28;20240;-80
2022/04/29 02:08:22;;;;;;;9.00;8.20;;;;;;;16.79;51.63;95110.84;5071266;28;20195;-81
2022/04/29 02:10:50;;;;;;;7.67;6.87;;;;;;;16.82;51.62;95117.47;5071366;28;20194;-79
2022/04/29 02:13:17;;;;;;;8.90;8.03;;;;;;;16.81;51.50;95119.25;5070885;28;20199;-80
2022/04/29 02:15:46;;;;;;;8.87;7.97;;;;;;;16.81;51.50;95121.84;5071187;28;20183;-80
2022/04/29 02:18:13;;;;;;;8.73;7.03;;;;;;;16.80;51.51;95115.06;5070912;28;20656;-80
2022/04/29 02:20:39;;;;;;;8.73;7.93;;;;;;;16.79;51.63;95119.41;5070321;28;20218;-79
2022/04/29 02:23:06;;;;;;;8.73;7.80;;;;;;;16.69;51.84;95105.84;5071111;28;20218;-82
2022/04/29 02:25:33;;;;;;;8.93;7.90;;;;;;;16.42;51.88;95068.31;5070628;28;20219;-80
2022/04/29 02:28:00;;;;;;;8.40;7.37;;;;;;;16.49;51.79;95076.19;5071042;28;20194;-81
2022/04/29 02:30:27;;;;;;;7.97;7.27;;;;;;;16.74;51.90;95128.63;5070961;28;20186;-79
2022/04/29 02:32:55;;;;;;;8.10;7.30;;;;;;;16.72;51.91;95126.22;5070626;28;20201;-80
2022/04/29 02:35:22;;;;;;;8.10;7.30;;;;;;;16.71;52.02;95127.16;5070467;28;20191;-79
2022/04/29 02:37:49;;;;;;;8.33;7.53;;;;;;;16.70;51.92;95127.31;5071107;28;20182;-79
2022/04/29 02:40:15;;;;;;;9.07;8.03;;;;;;;16.69;52.01;95120.53;5070567;28;20209;-80
2022/04/29 02:42:44;;;;;;;8.80;7.90;;;;;;;16.69;52.28;95125.69;5070814;28;20241;-80
2022/04/29 02:45:11;;;;;;;7.93;7.13;;;;;;;16.67;52.11;95123.28;5070758;28;20194;-80
2022/04/29 02:47:38;;;;;;;8.20;7.40;;;;;;;16.68;52.35;95129.25;5070459;28;20625;-80
2022/04/29 02:50:07;;;;;;;8.20;7.40;;;;;;;16.66;52.29;95124.25;5070136;28;20191;-79
2022/04/29 02:52:34;;;;;;;8.67;7.63;;;;;;;16.65;52.30;95122.63;5070551;28;20205;-79
2022/04/29 02:55:01;;;;;;;9.03;8.17;;;;;;;16.66;52.41;95129.41;5069918;28;20186;-78
2022/04/29 02:57:28;;;;;;;8.20;7.40;;;;;;;16.65;52.53;95121.84;5072281;28;20197;-78
2022/04/29 02:59:56;;;;;;;8.27;7.37;;;;;;;16.63;52.44;95124.59;5072429;28;20186;-78
2022/04/29 03:02:22;;;;;;;8.80;7.37;;;;;;;16.62;52.58;95122.97;5071027;28;20190;-79
2022/04/29 03:04:49;;;;;;;8.27;7.53;;;;;;;16.62;52.64;95122.16;5070186;28;20619;-80
2022/04/29 03:07:17;;;;;;;8.73;7.83;;;;;;;16.55;52.56;95120.25;5070565;28;20194;-80
2022/04/29 03:09:47;;;;;;;7.97;7.27;;;;;;;16.55;52.80;95119.44;5070307;28;20182;-79
2022/04/29 03:12:14;;;;;;;7.80;6.90;;;;;;;16.47;52.70;95103.94;5070288;28;20672;-79
2022/04/29 03:14:41;;;;;;;7.63;6.93;;;;;;;16.54;52.50;95116.06;5069443;28;20251;-79
2022/04/29 03:18:17;;;;;;;8.60;7.50;;;;;;;16.61;52.78;95129.09;5070381;28;20217;-79
2022/04/29 03:19:55;;;;;;;8.53;7.77;;;;;;;16.60;52.67;95131.84;5069501;28;20248;-78
2022/04/29 03:22:25;;;;;;;8.10;7.30;;;;;;;16.47;52.94;95112.50;5070630;28;20178;-79
2022/04/29 03:24:52;;;;;;;8.23;7.43;;;;;;;16.59;52.99;95133.63;5069926;28;20190;-78
2022/04/29 03:27:19;;;;;;;7.80;7.10;;;;;;;16.60;53.06;95129.28;5068572;28;20550;-80
2022/04/29 03:29:46;;;;;;;8.30;7.47;;;;;;;16.36;53.13;95094.75;5069602;28;20182;-80
2022/04/29 03:32:12;;;;;;;8.20;7.40;;;;;;;16.56;53.22;95132.16;5069903;28;20190;-80
2022/04/29 03:34:39;;;;;;;7.90;7.10;;;;;;;16.58;53.14;95134.59;5069497;28;20197;-79
2022/04/29 03:37:06;;;;;;;7.97;7.17;;;;;;;16.58;53.39;95136.34;5069522;28;20194;-80
2022/04/29 03:39:34;;;;;;;7.97;7.17;;;;;;;16.57;53.26;95132.97;5070003;28;20597;-81
2022/04/29 03:42:01;;;;;;;9.13;7.60;;;;;;;16.36;53.06;95102.50;5071330;28;20190;-79
2022/04/29 03:44:28;;;;;;;8.43;7.27;;;;;;;16.57;53.16;95138.13;5072679;28;20595;-82
2022/04/29 03:46:55;;;;;;;7.93;7.13;;;;;;;16.42;53.12;95111.38;5069807;28;20319;-82
2022/04/29 03:49:37;;;;;;;8.27;7.37;;;;;;;16.56;53.40;95139.91;5069991;28;20609;-82
2022/04/29 03:52:04;;;;;;;10.03;7.23;;;;;;;16.57;53.55;95140.72;5069517;28;20308;-82
2022/04/29 03:54:31;;;;;;;8.03;7.23;;;;;;;16.58;53.48;95146.69;5072032;28;20582;-81
2022/04/29 03:56:59;;;;;;;7.37;6.70;;;;;;;16.59;53.44;95148.31;5069805;28;20748;-81
2022/04/29 03:59:26;;;;;;;9.07;7.50;;;;;;;16.31;53.87;95112.50;5069454;28;20191;-81
2022/04/29 04:01:53;;;;;;;8.33;6.47;;;;;;;16.57;53.61;95151.06;5069554;28;20665;-81
2022/04/29 04:04:20;;;;;;;7.50;6.80;;;;;;;16.45;53.69;95124.78;5069796;28;20727;-82
2022/04/29 04:06:52;;;;;;;7.33;6.63;;;;;;;16.60;53.82;95149.94;5070025;28;20201;-81
2022/04/29 04:09:20;;;;;;;8.00;7.20;;;;;;;16.61;54.25;95154.13;5069821;28;20719;-79
2022/04/29 04:11:48;;;;;;;7.53;6.73;;;;;;;16.47;54.01;95137.50;5069802;28;20197;-80
2022/04/29 04:14:18;;;;;;;8.73;7.53;;;;;;;16.38;54.34;95126.38;5069755;28;20214;-81
2022/04/29 04:16:45;;;;;;;7.93;6.90;;;;;;;16.29;54.12;95102.34;5069350;28;20768;-82
2022/04/29 04:19:12;;;;;;;8.60;7.07;;;;;;;16.66;54.04;95152.66;5068947;28;20459;-81
2022/04/29 04:21:39;;;;;;;8.77;7.00;;;;;;;16.60;54.18;95153.31;5066689;28;20233;-80
2022/04/29 04:24:07;;;;;;;7.97;7.17;;;;;;;16.70;53.93;95159.09;5069666;28;20222;-80
2022/04/29 04:26:34;;;;;;;8.23;7.40;;;;;;;16.67;54.23;95149.13;5069575;28;20195;-82
2022/04/29 04:29:01;;;;;;;9.53;7.10;;;;;;;16.74;54.25;95163.00;5051515;28;20210;-81
2022/04/29 04:31:30;;;;;;;7.27;6.57;;;;;;;16.76;54.57;95163.66;5069435;28;20214;-81
2022/04/29 04:33:57;;;;;;;8.50;7.43;;;;;;;16.51;54.35;95118.94;5068348;28;20680;-80
2022/04/29 04:36:24;;;;;;;7.97;7.17;;;;;;;16.86;54.35;95167.84;5069183;28;20189;-80
2022/04/29 04:38:50;;;;;;;9.33;7.77;;;;;;;16.90;54.19;95162.19;5069344;28;20187;-79
2022/04/29 04:41:18;;;;;;;7.83;7.13;;;;;;;16.98;53.96;95169.91;5057854;28;20186;-80
2022/04/29 04:43:45;;;;;;;8.87;7.63;;;;;;;16.12;53.99;95020.75;5068439;28;20283;-79
2022/04/29 04:46:13;;;;;;;8.23;7.43;;;;;;;17.05;54.10;95162.28;5071335;28;20205;-79
2022/04/29 04:48:41;;;;;;;9.63;7.87;;;;;;;17.08;53.97;95168.91;5072696;28;20190;-82
2022/04/29 04:51:08;;;;;;;8.20;7.40;;;;;;;17.10;54.14;95166.97;5075201;28;20646;-82
2022/04/29 04:53:35;;;;;;;10.40;8.23;;;;;;;16.85;54.31;95119.72;5076951;28;20175;-80
2022/04/29 04:56:02;;;;;;;11.27;8.67;;;;;;;17.14;54.21;95165.66;5074420;28;20179;-80
2022/04/29 04:58:32;;;;;;;9.57;8.57;;;;;;;17.16;54.32;95159.34;5070554;28;20217;-80
2022/04/29 05:00:59;;;;;;;9.87;8.90;;;;;;;17.16;54.14;95156.78;5075718;28;20200;-79
2022/04/29 05:03:26;;;;;;;8.73;7.93;;;;;;;17.23;54.30;95162.09;5071620;28;20616;-79
2022/04/29 05:05:54;;;;;;;10.10;8.57;;;;;;;17.26;54.06;95165.13;5071141;28;20209;-80
2022/04/29 05:08:23;;;;;;;10.60;8.47;;;;;;;16.66;53.79;95056.28;5071450;28;20665;-80
2022/04/29 05:10:50;;;;;;;11.43;9.40;;;;;;;17.40;53.91;95160.22;5071047;28;20308;-79
2022/04/29 05:13:17;;;;;;;10.60;9.50;;;;;;;17.47;54.03;95158.59;5070938;28;20210;-78
2022/04/29 05:15:44;;;;;;;9.93;8.93;;;;;;;17.27;53.74;95117.66;5070224;28;20274;-80
2022/04/29 05:18:11;;;;;;;10.37;8.93;;;;;;;17.66;53.72;95163.38;5070854;28;20255;-81
2022/04/29 05:20:38;;;;;;;9.73;8.73;;;;;;;17.78;53.53;95161.22;5070628;28;20225;-81
2022/04/29 05:23:06;;;;;;;10.07;9.03;;;;;;;17.67;53.56;95123.59;5071675;28;20182;-79
2022/04/29 05:25:35;;;;;;;9.30;8.17;;;;;;;18.03;53.43;95162.69;5070369;28;20186;-79
2022/04/29 05:28:02;;;;;;;9.73;8.73;;;;;;;18.01;53.10;95148.31;5070593;28;20201;-79
2022/04/29 05:30:29;;;;;;;10.87;8.23;;;;;;;18.04;52.94;95142.78;5069951;28;20194;-81
2022/04/29 05:32:56;;;;;;;11.33;9.80;;;;;;;18.09;52.96;95145.66;5072744;28;20232;-79
2022/04/29 05:35:23;;;;;;;9.73;8.73;;;;;;;18.28;52.89;95167.69;5073096;28;20194;-78
2022/04/29 05:37:51;;;;;;;9.83;8.83;;;;;;;18.33;52.87;95162.78;5070283;28;20190;-78
2022/04/29 05:43:04;;;;;;;10.77;9.07;;;;;;;18.41;52.72;95154.16;5068147;28;20251;-78
2022/04/29 05:45:33;;;;;;;13.67;10.20;;;;;;;18.24;52.65;95125.00;5069947;28;20550;-81
2022/04/29 05:48:01;;;;;;;9.70;8.67;;;;;;;18.35;52.52;95145.31;5070551;28;20202;-80
2022/04/29 05:50:28;;;;;;;10.77;9.00;;;;;;;18.40;52.57;95137.03;5069792;28;20292;-79
2022/04/29 05:52:55;;;;;;;9.27;8.37;;;;;;;18.61;52.43;95172.59;5070430;28;20194;-79
2022/04/29 05:55:24;;;;;;;9.93;8.70;;;;;;;18.60;52.49;95163.22;5069852;28;20593;-80
2022/04/29 05:57:51;;;;;;;9.77;8.73;;;;;;;18.75;52.04;95164.09;5070149;28;20194;-79
2022/04/29 06:00:19;;;;;;;8.50;7.70;;;;;;;18.86;52.37;95170.63;5070453;28;20193;-79
2022/04/29 06:02:46;;;;;;;9.33;8.43;;;;;;;18.95;52.17;95167.75;5070003;28;20212;-79
2022/04/29 06:05:13;;;;;;;8.60;7.70;;;;;;;19.02;52.13;95179.03;5070283;28;20294;-80
2022/04/29 06:07:41;;;;;;;8.13;7.33;;;;;;;19.10;51.84;95185.94;5069633;28;20210;-81
2022/04/29 06:10:09;;;;;;;8.83;7.97;;;;;;;18.82;51.90;95125.31;5069772;28;20671;-78
2022/04/29 06:12:41;;;;;;;9.57;8.03;;;;;;;19.27;52.06;95189.16;5069272;28;20194;-79
2022/04/29 06:15:13;;;;;;;9.53;8.60;;;;;;;19.27;51.80;95174.41;5069986;28;20202;-81
2022/04/29 06:17:41;;;;;;;8.47;7.57;;;;;;;19.46;51.82;95195.59;5069365;28;20194;-79
2022/04/29 06:20:11;;;;;;;10.83;8.50;;;;;;;19.58;51.88;95193.34;5069125;28;20221;-80
2022/04/29 06:22:43;;;;;;;8.10;7.30;;;;;;;19.69;51.78;95193.72;5068990;28;20190;-79
2022/04/29 06:25:10;;;;;;;8.00;7.20;;;;;;;19.84;51.88;95196.28;5070022;28;20218;-79
2022/04/29 06:27:37;;;;;;;8.70;7.80;;;;;;;20.03;51.77;95194.88;5068723;28;20267;-79
2022/04/29 06:30:08;;;;;;;8.43;7.63;;;;;;;20.25;51.60;95195.72;5051461;28;20206;-79
2022/04/29 06:32:35;;;;;;;9.47;7.43;;;;;;;20.50;51.50;95196.19;5050644;28;20701;-79
2022/04/29 06:35:06;;;;;;;8.10;7.33;;;;;;;20.73;51.43;95191.59;5068604;28;20202;-80
2022/04/29 06:37:33;;;;;;;8.73;7.27;;;;;;;20.97;51.00;95192.94;5068587;28;20194;-80
2022/04/29 06:40:00;;;;;;;8.33;7.50;;;;;;;21.15;50.75;95181.25;5069006;28;20198;-79
2022/04/29 06:42:27;;;;;;;8.80;7.00;;;;;;;21.46;50.59;95197.28;5068482;28;20645;-80
2022/04/29 06:44:53;;;;;;;7.90;7.10;;;;;;;21.63;50.77;95168.31;5065362;28;20217;-78
2022/04/29 06:47:21;;;;;;;8.00;7.20;;;;;;;22.00;50.46;95185.28;5068550;28;20696;-79
2022/04/29 06:49:48;;;;;;;7.57;6.78;;;;;;;22.28;49.63;95177.38;5068215;28;20195;-80
2022/04/29 06:52:15;;;;;;;7.47;6.85;;;;;;;22.61;49.02;95184.41;5068550;28;20214;-78
2022/04/29 06:54:42;;;;;;;7.38;6.70;;;;;;;22.82;48.18;95194.63;5068535;28;20221;-79
2022/04/29 06:57:09;;;;;;;7.32;6.55;;;;;;;23.02;47.50;95186.84;5068773;28;20182;-77
2022/04/29 06:59:36;;;;;;;7.85;7.05;;;;;;;23.18;47.10;95182.97;5068616;28;20734;-79
2022/04/29 07:02:04;;;;;;;8.30;6.90;;;;;;;23.34;46.84;95185.16;5069089;28;20201;-81
2022/04/29 07:04:32;;;;;;;7.50;6.82;;;;;;;23.36;46.11;95159.69;5068902;28;20333;-81
2022/04/29 07:06:59;;;;;;;7.53;6.18;;;;;;;23.59;45.74;95168.84;5068750;28;20214;-78
2022/04/29 07:09:26;;;;;;;7.70;6.93;;;;;;;23.84;45.50;95180.22;5068762;28;20189;-78
2022/04/29 07:11:54;;;;;;;7.40;6.70;;;;;;;23.95;45.22;95168.28;5066868;28;20190;-79
2022/04/29 07:14:22;;;;;;;7.20;6.50;;;;;;;24.20;44.86;95176.19;5067192;28;20278;-81
2022/04/29 07:16:49;;;;;;;6.70;6.10;;;;;;;24.41;44.78;95175.09;5069126;28;20703;-79
2022/04/29 07:19:16;;;;;;;8.10;7.32;;;;;;;24.61;44.21;95175.75;5069185;28;20197;-79
2022/04/29 07:21:45;;;;;;;7.20;6.50;;;;;;;24.70;43.91;95150.13;5065423;28;20232;-82
2022/04/29 07:24:12;;;;;;;7.57;6.88;;;;;;;25.00;43.71;95174.63;5069818;28;20217;-79
2022/04/29 07:26:39;;;;;;;7.80;6.65;;;;;;;25.13;43.51;95149.34;5069780;28;20186;-80
2022/04/29 07:29:09;;;;;;;6.70;6.00;;;;;;;25.48;42.82;95173.97;5070088;28;20217;-83
2022/04/29 07:31:37;;;;;;;7.22;6.20;;;;;;;25.65;42.51;95166.31;5051969;28;20281;-82
2022/04/29 07:34:03;;;;;;;7.05;6.35;;;;;;;25.91;42.02;95175.69;5073549;28;20281;-79
2022/04/29 07:42:07;;;;;;;5.80;5.30;;;;;;;26.26;40.66;95141.75;5068862;28;20205;-79
2022/04/29 07:44:34;;;;;;;6.30;5.70;;;;;;;26.62;39.99;95173.31;5069613;28;20369;-80
2022/04/29 07:47:02;;;;;;;6.88;6.22;;;;;;;26.70;40.05;95168.53;5069730;28;20197;-79
2022/04/29 07:49:28;;;;;;;5.68;5.18;;;;;;;26.76;40.09;95177.31;5069219;28;20222;-78
2022/04/29 07:51:55;;;;;;;5.97;5.47;;;;;;;26.69;40.00;95166.94;5069595;28;20185;-82
2022/04/29 07:54:24;;;;;;;6.13;5.53;;;;;;;26.71;39.94;95171.94;5069128;28;20235;-80
2022/04/29 07:56:52;;;;;;;5.47;5.03;;;;;;;26.61;39.94;95166.47;5069788;28;20186;-78
2022/04/29 07:59:20;;;;;;;6.40;5.90;;;;;;;26.39;39.81;95156.47;5069332;28;20195;-79
2022/04/29 08:01:47;;;;;;;6.53;5.78;;;;;;;26.18;39.80;95144.69;5068819;28;20182;-80
2022/04/29 08:04:14;;;;;;;5.95;5.40;;;;;;;26.19;39.58;95169.06;5068682;28;20570;-78
2022/04/29 08:06:41;;;;;;;5.80;5.22;;;;;;;26.02;39.48;95171.50;5069092;28;20178;-80
2022/04/29 08:09:09;;;;;;;11.73;5.88;;;;;;;25.86;39.32;95172.13;5069500;28;20186;-78
2022/04/29 08:11:37;;;;;;;6.75;6.15;;;;;;;25.66;39.66;95156.63;5068902;28;20210;-80
2022/04/29 08:14:06;;;;;;;5.65;5.15;;;;;;;25.58;39.63;95167.41;5071046;28;20198;-79
2022/04/29 08:16:35;;;;;;;8.07;5.75;;;;;;;25.46;39.61;95165.50;5068849;28;20179;-80
2022/04/29 08:19:02;;;;;;;6.63;6.03;;;;;;;25.26;39.68;95154.47;5072293;28;20195;-79
2022/04/29 08:21:28;;;;;;;6.30;5.70;;;;;;;25.20;39.77;95155.31;5072488;28;20317;-80
2022/04/29 08:23:55;;;;;;;7.53;6.15;;;;;;;25.13;39.79;95154.56;5072557;28;20178;-80
2022/04/29 08:26:22;;;;;;;6.28;5.68;;;;;;;25.00;39.74;95145.03;5072754;28;20190;-79
2022/04/29 08:28:51;;;;;;;6.50;5.90;;;;;;;25.02;39.94;95149.03;5072296;28;20186;-79
2022/04/29 08:31:20;;;;;;;6.32;5.78;;;;;;;25.00;39.76;95158.91;5072513;28;20617;-78
2022/04/29 08:33:46;;;;;;;6.25;5.75;;;;;;;24.93;39.72;95168.63;5072485;28;20179;-79
2022/04/29 08:36:15;;;;;;;6.90;6.30;;;;;;;24.87;39.69;95173.91;5072800;28;20206;-78
2022/04/29 08:38:42;;;;;;;5.93;5.43;;;;;;;24.74;39.69;95161.75;5071779;28;20269;-79
2022/04/29 08:41:10;;;;;;;6.32;5.70;;;;;;;24.67;39.43;95153.16;5072710;28;20202;-80
2022/04/29 08:43:39;;;;;;;5.97;5.32;;;;;;;24.68;39.58;95160.00;5072344;28;20202;-80
2022/04/29 08:46:09;;;;;;;7.43;5.95;;;;;;;24.63;39.75;95158.03;5070634;28;20732;-79
2022/04/29 08:48:37;;;;;;;8.00;5.80;;;;;;;24.59;39.69;95146.38;5072421;28;20194;-79
2022/04/29 08:51:04;;;;;;;6.60;6.00;;;;;;;24.50;39.80;95139.81;5072106;28;20252;-78
2022/04/29 08:53:34;;;;;;;6.20;5.53;;;;;;;24.57;39.69;95147.59;5071837;28;20186;-78
2022/04/29 08:58:47;;;;;;;5.50;5.00;;;;;;;24.49;39.63;95133.00;5072380;28;20189;-81
2022/04/29 09:01:16;;;;;;;5.05;4.65;;;;;;;24.47;39.67;95132.41;5072403;28;20190;-80
2022/04/29 09:03:44;;;;;;;5.88;5.38;;;;;;;24.59;39.29;95146.38;5069199;28;20217;-81
2022/04/29 09:06:12;;;;;;;5.07;4.68;;;;;;;24.63;39.50;95131.88;5072096;28;20230;-79
2022/04/29 09:08:41;;;;;;;5.63;5.13;;;;;;;24.23;39.20;95061.56;5072102;28;20205;-80
2022/04/29 09:11:09;;;;;;;5.68;5.18;;;;;;;24.63;39.06;95115.38;5069021;28;20202;-81
2022/04/29 09:13:38;;;;;;;5.80;5.20;;;;;;;24.79;38.89;95127.91;5071895;28;20191;-82
2022/04/29 09:16:07;;;;;;;8.35;5.45;;;;;;;24.84;38.97;95130.69;5072069;28;20661;-82
2022/04/29 09:18:39;;;;;;;5.50;4.95;;;;;;;24.87;38.74;95121.59;5054141;28;21925;-79
2022/04/29 09:21:17;;;;;;;5.88;5.07;;;;;;;24.90;38.88;95131.63;5074039;28;20233;-80
2022/04/29 09:23:55;;;;;;;6.47;5.88;;;;;;;24.92;38.96;95134.84;5056120;28;20692;-78
2022/04/29 09:26:27;;;;;;;6.20;5.60;;;;;;;24.93;38.86;95131.19;5072688;28;20236;-80
2022/04/29 09:28:55;;;;;;;5.47;5.07;;;;;;;24.93;38.82;95126.78;5071983;28;20178;-80
2022/04/29 09:31:22;;;;;;;7.30;5.82;;;;;;;24.86;38.82;95112.13;5071171;28;20205;-82
2022/04/29 09:33:57;;;;;;;5.78;5.28;;;;;;;24.91;38.90;95128.00;5071810;28;20646;-80
2022/04/29 09:36:27;;;;;;;5.63;5.13;;;;;;;24.85;38.90;95121.00;5071785;28;20201;-81
2022/04/29 09:41:40;;;;;;;5.95;5.45;;;;;;;24.85;38.80;95119.19;5071408;28;20193;-80
2022/04/29 09:44:07;;;;;;;6.15;5.55;;;;;;;24.39;38.82;95062.06;5071670;28;20194;-78
2022/04/29 09:46:38;;;;;;;5.63;5.13;;;;;;;24.79;38.81;95127.91;5070573;28;20225;-81
2022/04/29 09:49:07;;;;;;;7.80;5.68;;;;;;;24.78;38.92;95126.28;5070579;28;20243;-79
2022/04/29 09:51:46;;;;;;;5.57;5.07;;;;;;;24.78;38.89;95137.59;5071247;28;20199;-82
2022/04/29 09:54:16;;;;;;;5.85;5.35;;;;;;;24.73;38.72;95126.16;5070973;28;20194;-81
2022/04/29 09:56:43;;;;;;;5.13;4.63;;;;;;;24.83;38.56;95136.09;5071185;28;20620;-79
2022/04/29 09:59:10;;;;;;;5.97;5.47;;;;;;;24.85;38.15;95132.28;5070162;28;20271;-79
2022/04/29 10:01:38;;;;;;;5.53;5.07;;;;;;;24.90;37.98;95131.63;5071026;28;20210;-80
2022/04/29 10:04:06;;;;;;;6.32;5.18;;;;;;;24.95;38.14;95126.53;5067936;28;20568;-80
2022/04/29 10:06:35;;;;;;;5.60;5.10;;;;;;;24.99;37.75;95123.28;5068597;28;20230;-80
2022/04/29 10:09:03;;;;;;;6.22;5.57;;;;;;;25.06;37.79;95115.38;5069774;28;20191;-80
2022/04/29 10:11:34;;;;;;;5.70;5.20;;;;;;;25.12;37.87;95117.13;5070399;28;20187;-79
2022/04/29 10:14:04;;;;;;;7.15;4.88;;;;;;;25.19;37.52;95111.84;5070414;28;20657;-78
2022/04/29 10:16:34;;;;;;;6.35;4.80;;;;;;;25.10;37.55;95084.34;5070464;28;20191;-77
2022/04/29 10:21:58;;;;;;;5.40;4.90;;;;;;;25.46;37.14;95104.47;5070226;28;20245;-78
2022/04/29 10:24:25;;;;;;;5.50;5.07;;;;;;;25.55;36.61;95103.16;5067434;28;20202;-82
2022/04/29 10:26:54;;;;;;;5.05;4.65;;;;;;;25.53;36.82;95086.88;5067788;28;20658;-82
2022/04/29 10:29:22;;;;;;;5.90;5.13;;;;;;;25.65;37.05;95087.72;5067512;28;20632;-77
2022/04/29 10:32:07;;;;;;;5.30;4.90;;;;;;;25.85;36.69;95105.81;5069654;28;20269;-77
2022/04/29 10:34:35;;;;;;;5.10;4.50;;;;;;;25.94;36.39;95107.09;5070926;28;20190;-80
2022/04/29 10:37:10;;;;;;;6.68;5.20;;;;;;;25.75;36.71;95056.53;5069792;28;20186;-82
2022/04/29 10:39:37;;;;;;;5.72;5.22;;;;;;;26.17;36.39;95095.09;5070359;28;20186;-79
2022/04/29 10:42:08;;;;;;;6.32;5.13;;;;;;;26.27;36.34;95108.44;5069390;28;20205;-79
2022/04/29 10:44:36;;;;;;;8.38;5.13;;;;;;;26.37;36.05;95102.63;5069926;28;20603;-80
2022/04/29 10:47:31;;;;;;;5.07;4.68;;;;;;;26.45;36.10;95105.75;5069727;28;20183;-80
2022/04/29 10:50:31;;;;;;;5.53;5.05;;;;;;;26.52;35.73;95098.59;5070019;28;20201;-80
2022/04/29 10:53:31;;;;;;;7.50;5.28;;;;;;;26.58;35.61;95090.84;5068102;28;20561;-80
2022/04/29 10:56:37;;;;;;;5.43;5.03;;;;;;;26.56;35.91;95082.41;5049247;28;20271;-80
2022/04/29 10:59:19;;;;;;;5.45;5.03;;;;;;;26.67;35.37;95086.84;5069240;28;20205;-80
2022/04/29 11:02:06;;;;;;;5.32;4.82;;;;;;;26.70;35.60;95079.31;5069220;28;20557;-81
2022/04/29 11:04:45;;;;;;;6.45;4.88;;;;;;;26.71;35.07;95083.53;5067784;28;20566;-80
2022/04/29 11:07:43;;;;;;;5.60;5.10;;;;;;;26.73;35.22;95070.19;5069272;28;20277;-80
2022/04/29 11:10:15;;;;;;;5.97;5.38;;;;;;;26.75;35.56;95065.50;5068346;28;20673;-80
2022/04/29 11:12:59;;;;;;;5.80;5.30;;;;;;;26.63;35.07;95051.59;5069529;28;20182;-79
2022/04/29 11:15:42;;;;;;;6.13;5.63;;;;;;;26.71;35.51;95067.00;5069111;28;20193;-81
2022/04/29 11:18:24;;;;;;;6.10;5.60;;;;;;;26.67;35.21;95065.84;5069405;28;20653;-79
2022/04/29 11:20:55;;;;;;;6.15;5.45;;;;;;;26.60;35.42;95060.72;5069270;28;20600;-80
2022/04/29 11:26:12;;;;;;;5.60;5.10;;;;;;;26.54;35.76;95053.75;5066947;28;20220;-80
2022/04/29 11:28:41;;;;;;;6.15;5.55;;;;;;;26.56;35.89;95059.59;5068953;28;20183;-82
2022/04/29 11:31:10;;;;;;;6.35;5.75;;;;;;;26.32;35.33;95015.97;5069293;28;20572;-81
2022/04/29 11:33:37;;;;;;;8.93;6.00;;;;;;;26.56;34.84;95051.72;5068651;28;20189;-81
2022/04/29 11:36:06;;;;;;;6.88;6.28;;;;;;;26.52;35.01;95058.44;5068646;28;20186;-80
2022/04/29 11:38:41;;;;;;;7.50;5.88;;;;;;;26.49;35.00;95051.81;5069089;28;20190;-80
2022/04/29 11:41:08;;;;;;;6.85;6.20;;;;;;;26.38;35.07;95028.16;5069568;28;20239;-83
2022/04/29 11:43:35;;;;;;;5.47;5.07;;;;;;;26.44;34.96;95050.91;5068321;28;20225;-81
2022/04/29 11:46:09;;;;;;;6.28;5.68;;;;;;;26.20;34.82;95014.13;5069308;28;20225;-80
2022/04/29 11:48:36;;;;;;;7.60;5.43;;;;;;;26.30;35.51;95039.81;5067734;28;20198;-80
2022/04/29 11:51:05;;;;;;;5.55;5.05;;;;;;;26.14;35.42;95027.38;5069036;28;20198;-79
2022/04/29 11:53:33;;;;;;;6.07;5.57;;;;;;;26.22;35.58;95040.94;5071650;28;20190;-80
2022/04/29 11:56:00;;;;;;;5.70;5.20;;;;;;;26.20;35.42;95040.34;5072673;28;20254;-78
2022/04/29 11:58:32;;;;;;;6.45;5.85;;;;;;;25.92;34.58;95004.31;5072925;28;20231;-79